sensor_id;sensor_type;location;lat;lon;timestamp;P1;durP1;ratioP1;P2;durP2;ratioP2
6987;SDS011;3534;49.960;8.018;2023-03-23T00:00:52;2.27;;;1.27;;
6987;SDS011;3534;49.960;8.018;2023-03-23T00:03:20;1.73;;;0.80;;
6987;SDS011;3534;49.960;8.018;2023-03-23T00:05:47;1.33;;;0.80;;
6987;SDS011;3534;49.960;8.018;2023-03-23T00:08:16;1.10;;;0.93;;
6987;SDS011;3534;49.960;8.018;2023-03-23T00:10:44;1.60;;;0.90;;
6987;SDS011;3534;49.960;8.018;2023-03-23T00:13:14;2.97;;;1.00;;
6987;SDS011;3534;49.960;8.018;2023-03-23T00:15:44;2.20;;;1.00;;
6987;SDS011;3534;49.960;8.018;2023-03-23T00:18:13;1.27;;;0.80;;
6987;SDS011;3534;49.960;8.018;2023-03-23T00:20:46;1.30;;;0.77;;
6987;SDS011;3534;49.960;8.018;2023-03-23T00:23:14;1.10;;;0.87;;
6987;SDS011;3534;49.960;8.018;2023-03-23T00:25:45;2.70;;;0.90;;
6987;SDS011;3534;49.960;8.018;2023-03-23T00:28:14;3.63;;;1.00;;
6987;SDS011;3534;49.960;8.018;2023-03-23T00:30:42;1.47;;;1.00;;
6987;SDS011;3534;49.960;8.018;2023-03-23T00:33:09;1.63;;;1.00;;
6987;SDS011;3534;49.960;8.018;2023-03-23T00:35:38;3.30;;;1.67;;
6987;SDS011;3534;49.960;8.018;2023-03-23T00:38:06;1.20;;;0.97;;
6987;SDS011;3534;49.960;8.018;2023-03-23T00:40:33;4.40;;;1.30;;
6987;SDS011;3534;49.960;8.018;2023-03-23T00:43:02;1.67;;;0.87;;
6987;SDS011;3534;49.960;8.018;2023-03-23T00:45:29;1.30;;;0.90;;
6987;SDS011;3534;49.960;8.018;2023-03-23T00:47:56;3.10;;;1.10;;
6987;SDS011;3534;49.960;8.018;2023-03-23T00:50:27;2.30;;;1.00;;
6987;SDS011;3534;49.960;8.018;2023-03-23T00:52:53;5.03;;;1.10;;
6987;SDS011;3534;49.960;8.018;2023-03-23T00:55:21;2.17;;;1.00;;
6987;SDS011;3534;49.960;8.018;2023-03-23T00:57:48;1.73;;;1.00;;
6987;SDS011;3534;49.960;8.018;2023-03-23T01:00:17;1.50;;;1.10;;
6987;SDS011;3534;49.960;8.018;2023-03-23T01:02:46;1.60;;;1.20;;
6987;SDS011;3534;49.960;8.018;2023-03-23T01:05:13;2.67;;;1.10;;
6987;SDS011;3534;49.960;8.018;2023-03-23T01:07:40;1.73;;;0.93;;
6987;SDS011;3534;49.960;8.018;2023-03-23T01:10:09;4.37;;;1.50;;
6987;SDS011;3534;49.960;8.018;2023-03-23T01:12:37;2.20;;;0.90;;
6987;SDS011;3534;49.960;8.018;2023-03-23T01:15:04;1.43;;;0.93;;
6987;SDS011;3534;49.960;8.018;2023-03-23T01:17:33;1.70;;;1.23;;
6987;SDS011;3534;49.960;8.018;2023-03-23T01:20:00;1.47;;;0.87;;
6987;SDS011;3534;49.960;8.018;2023-03-23T01:22:29;5.30;;;1.63;;
6987;SDS011;3534;49.960;8.018;2023-03-23T01:24:56;2.10;;;1.00;;
6987;SDS011;3534;49.960;8.018;2023-03-23T01:27:22;1.20;;;1.10;;
6987;SDS011;3534;49.960;8.018;2023-03-23T01:29:49;1.53;;;1.20;;
6987;SDS011;3534;49.960;8.018;2023-03-23T01:32:16;2.20;;;0.90;;
6987;SDS011;3534;49.960;8.018;2023-03-23T01:34:44;1.63;;;1.10;;
6987;SDS011;3534;49.960;8.018;2023-03-23T01:37:11;2.80;;;1.00;;
6987;SDS011;3534;49.960;8.018;2023-03-23T01:39:37;2.30;;;0.73;;
6987;SDS011;3534;49.960;8.018;2023-03-23T01:42:04;1.07;;;0.83;;
6987;SDS011;3534;49.960;8.018;2023-03-23T01:47:34;1.10;;;0.80;;
6987;SDS011;3534;49.960;8.018;2023-03-23T01:50:03;2.50;;;0.90;;
6987;SDS011;3534;49.960;8.018;2023-03-23T01:52:30;1.60;;;0.77;;
6987;SDS011;3534;49.960;8.018;2023-03-23T01:54:58;1.70;;;1.10;;
6987;SDS011;3534;49.960;8.018;2023-03-23T01:57:27;0.93;;;0.70;;
6987;SDS011;3534;49.960;8.018;2023-03-23T01:59:55;1.80;;;0.97;;
6987;SDS011;3534;49.960;8.018;2023-03-23T02:02:24;1.13;;;1.03;;
6987;SDS011;3534;49.960;8.018;2023-03-23T02:04:51;1.10;;;1.00;;
6987;SDS011;3534;49.960;8.018;2023-03-23T02:07:26;2.80;;;1.30;;
6987;SDS011;3534;49.960;8.018;2023-03-23T02:09:53;1.60;;;1.10;;
6987;SDS011;3534;49.960;8.018;2023-03-23T02:12:20;1.67;;;0.90;;
6987;SDS011;3534;49.960;8.018;2023-03-23T02:14:46;1.20;;;0.93;;
6987;SDS011;3534;49.960;8.018;2023-03-23T02:17:15;1.33;;;1.20;;
6987;SDS011;3534;49.960;8.018;2023-03-23T02:19:55;1.57;;;0.83;;
6987;SDS011;3534;49.960;8.018;2023-03-23T02:22:49;1.80;;;1.10;;
6987;SDS011;3534;49.960;8.018;2023-03-23T02:25:31;1.27;;;1.00;;
6987;SDS011;3534;49.960;8.018;2023-03-23T02:28:24;1.30;;;1.10;;
6987;SDS011;3534;49.960;8.018;2023-03-23T02:31:26;3.03;;;0.97;;
6987;SDS011;3534;49.960;8.018;2023-03-23T02:34:14;2.50;;;1.10;;
6987;SDS011;3534;49.960;8.018;2023-03-23T02:36:45;4.97;;;1.10;;
6987;SDS011;3534;49.960;8.018;2023-03-23T02:39:18;1.20;;;1.10;;
6987;SDS011;3534;49.960;8.018;2023-03-23T02:41:49;1.43;;;1.13;;
6987;SDS011;3534;49.960;8.018;2023-03-23T02:44:19;1.00;;;0.90;;
6987;SDS011;3534;49.960;8.018;2023-03-23T02:46:47;1.20;;;1.10;;
6987;SDS011;3534;49.960;8.018;2023-03-23T02:49:16;1.60;;;0.90;;
6987;SDS011;3534;49.960;8.018;2023-03-23T02:51:45;4.00;;;0.90;;
6987;SDS011;3534;49.960;8.018;2023-03-23T02:54:13;2.10;;;0.80;;
6987;SDS011;3534;49.960;8.018;2023-03-23T02:56:42;3.20;;;1.00;;
6987;SDS011;3534;49.960;8.018;2023-03-23T02:59:10;2.20;;;1.13;;
6987;SDS011;3534;49.960;8.018;2023-03-23T03:01:48;1.30;;;1.20;;
6987;SDS011;3534;49.960;8.018;2023-03-23T03:04:22;3.23;;;1.07;;
6987;SDS011;3534;49.960;8.018;2023-03-23T03:06:56;1.20;;;1.00;;
6987;SDS011;3534;49.960;8.018;2023-03-23T03:09:35;1.63;;;1.10;;
6987;SDS011;3534;49.960;8.018;2023-03-23T03:12:09;3.53;;;1.13;;
6987;SDS011;3534;49.960;8.018;2023-03-23T03:14:39;1.10;;;1.00;;
6987;SDS011;3534;49.960;8.018;2023-03-23T03:17:17;1.60;;;1.40;;
6987;SDS011;3534;49.960;8.018;2023-03-23T03:19:50;2.80;;;1.23;;
6987;SDS011;3534;49.960;8.018;2023-03-23T03:22:22;5.33;;;1.37;;
6987;SDS011;3534;49.960;8.018;2023-03-23T03:24:53;2.60;;;1.40;;
6987;SDS011;3534;49.960;8.018;2023-03-23T03:27:22;1.77;;;1.20;;
6987;SDS011;3534;49.960;8.018;2023-03-23T03:29:51;0.90;;;0.80;;
6987;SDS011;3534;49.960;8.018;2023-03-23T03:32:22;1.87;;;1.20;;
6987;SDS011;3534;49.960;8.018;2023-03-23T03:34:54;1.30;;;1.13;;
6987;SDS011;3534;49.960;8.018;2023-03-23T03:37:20;1.23;;;1.00;;
6987;SDS011;3534;49.960;8.018;2023-03-23T03:39:47;1.70;;;1.13;;
6987;SDS011;3534;49.960;8.018;2023-03-23T03:42:14;1.50;;;1.40;;
6987;SDS011;3534;49.960;8.018;2023-03-23T03:44:41;2.70;;;1.27;;
6987;SDS011;3534;49.960;8.018;2023-03-23T03:47:07;1.63;;;0.97;;
6987;SDS011;3534;49.960;8.018;2023-03-23T03:49:34;5.00;;;1.50;;
6987;SDS011;3534;49.960;8.018;2023-03-23T03:52:02;2.83;;;1.30;;
6987;SDS011;3534;49.960;8.018;2023-03-23T03:54:29;1.57;;;1.07;;
6987;SDS011;3534;49.960;8.018;2023-03-23T03:56:56;1.30;;;1.20;;
6987;SDS011;3534;49.960;8.018;2023-03-23T03:59:22;1.70;;;1.17;;
6987;SDS011;3534;49.960;8.018;2023-03-23T04:01:51;1.73;;;1.03;;
6987;SDS011;3534;49.960;8.018;2023-03-23T04:04:19;2.03;;;1.10;;
6987;SDS011;3534;49.960;8.018;2023-03-23T04:06:46;1.00;;;0.90;;
6987;SDS011;3534;49.960;8.018;2023-03-23T04:09:15;1.90;;;1.63;;
6987;SDS011;3534;49.960;8.018;2023-03-23T04:11:42;2.27;;;1.17;;
6987;SDS011;3534;49.960;8.018;2023-03-23T04:14:08;2.77;;;1.67;;
6987;SDS011;3534;49.960;8.018;2023-03-23T04:16:35;2.20;;;1.77;;
6987;SDS011;3534;49.960;8.018;2023-03-23T04:19:01;1.30;;;1.20;;
6987;SDS011;3534;49.960;8.018;2023-03-23T04:21:28;1.47;;;1.13;;
6987;SDS011;3534;49.960;8.018;2023-03-23T04:23:55;1.47;;;1.37;;
6987;SDS011;3534;49.960;8.018;2023-03-23T04:26:25;1.73;;;1.33;;
6987;SDS011;3534;49.960;8.018;2023-03-23T04:28:53;1.73;;;1.60;;
6987;SDS011;3534;49.960;8.018;2023-03-23T04:31:20;1.57;;;1.20;;
6987;SDS011;3534;49.960;8.018;2023-03-23T04:33:50;2.20;;;1.10;;
6987;SDS011;3534;49.960;8.018;2023-03-23T04:36:18;1.57;;;1.20;;
6987;SDS011;3534;49.960;8.018;2023-03-23T04:38:47;1.80;;;1.10;;
6987;SDS011;3534;49.960;8.018;2023-03-23T04:41:15;1.23;;;1.00;;
6987;SDS011;3534;49.960;8.018;2023-03-23T04:43:44;1.97;;;1.43;;
6987;SDS011;3534;49.960;8.018;2023-03-23T04:46:10;2.03;;;1.20;;
6987;SDS011;3534;49.960;8.018;2023-03-23T04:48:40;4.10;;;1.43;;
6987;SDS011;3534;49.960;8.018;2023-03-23T04:51:07;1.60;;;1.50;;
6987;SDS011;3534;49.960;8.018;2023-03-23T04:53:33;2.03;;;1.20;;
6987;SDS011;3534;49.960;8.018;2023-03-23T04:56:00;3.80;;;1.30;;
6987;SDS011;3534;49.960;8.018;2023-03-23T04:58:27;1.47;;;1.20;;
6987;SDS011;3534;49.960;8.018;2023-03-23T05:00:56;2.27;;;1.10;;
6987;SDS011;3534;49.960;8.018;2023-03-23T05:03:22;4.33;;;2.00;;
6987;SDS011;3534;49.960;8.018;2023-03-23T05:05:50;1.70;;;1.47;;
6987;SDS011;3534;49.960;8.018;2023-03-23T05:08:17;1.67;;;1.30;;
6987;SDS011;3534;49.960;8.018;2023-03-23T05:10:49;2.17;;;1.50;;
6987;SDS011;3534;49.960;8.018;2023-03-23T05:13:17;1.50;;;1.40;;
6987;SDS011;3534;49.960;8.018;2023-03-23T05:15:44;2.67;;;1.30;;
6987;SDS011;3534;49.960;8.018;2023-03-23T05:18:12;3.40;;;1.53;;
6987;SDS011;3534;49.960;8.018;2023-03-23T05:20:38;3.10;;;1.50;;
6987;SDS011;3534;49.960;8.018;2023-03-23T05:23:06;4.23;;;2.00;;
6987;SDS011;3534;49.960;8.018;2023-03-23T05:25:34;3.50;;;1.90;;
6987;SDS011;3534;49.960;8.018;2023-03-23T05:28:05;2.63;;;1.57;;
6987;SDS011;3534;49.960;8.018;2023-03-23T05:30:32;1.50;;;1.40;;
6987;SDS011;3534;49.960;8.018;2023-03-23T05:32:59;4.87;;;1.87;;
6987;SDS011;3534;49.960;8.018;2023-03-23T05:35:28;4.10;;;1.80;;
6987;SDS011;3534;49.960;8.018;2023-03-23T05:37:55;1.40;;;1.30;;
6987;SDS011;3534;49.960;8.018;2023-03-23T05:40:23;3.20;;;1.30;;
6987;SDS011;3534;49.960;8.018;2023-03-23T05:42:52;3.13;;;1.60;;
6987;SDS011;3534;49.960;8.018;2023-03-23T05:45:20;3.73;;;1.80;;
6987;SDS011;3534;49.960;8.018;2023-03-23T05:47:49;1.87;;;1.47;;
6987;SDS011;3534;49.960;8.018;2023-03-23T05:50:16;1.70;;;1.53;;
6987;SDS011;3534;49.960;8.018;2023-03-23T05:52:44;1.70;;;1.60;;
6987;SDS011;3534;49.960;8.018;2023-03-23T05:55:11;3.00;;;1.40;;
6987;SDS011;3534;49.960;8.018;2023-03-23T05:57:37;1.50;;;1.40;;
6987;SDS011;3534;49.960;8.018;2023-03-23T06:00:05;1.60;;;1.50;;
6987;SDS011;3534;49.960;8.018;2023-03-23T06:02:44;3.00;;;1.83;;
6987;SDS011;3534;49.960;8.018;2023-03-23T06:05:10;1.70;;;1.60;;
6987;SDS011;3534;49.960;8.018;2023-03-23T06:07:38;2.40;;;1.80;;
6987;SDS011;3534;49.960;8.018;2023-03-23T06:10:07;1.60;;;1.50;;
6987;SDS011;3534;49.960;8.018;2023-03-23T06:12:35;3.33;;;2.00;;
6987;SDS011;3534;49.960;8.018;2023-03-23T06:15:02;1.73;;;1.40;;
6987;SDS011;3534;49.960;8.018;2023-03-23T06:17:31;2.67;;;1.60;;
6987;SDS011;3534;49.960;8.018;2023-03-23T06:19:58;2.03;;;1.73;;
6987;SDS011;3534;49.960;8.018;2023-03-23T06:22:24;2.17;;;1.77;;
6987;SDS011;3534;49.960;8.018;2023-03-23T06:24:52;2.07;;;1.83;;
6987;SDS011;3534;49.960;8.018;2023-03-23T06:27:23;1.50;;;1.40;;
6987;SDS011;3534;49.960;8.018;2023-03-23T06:29:50;2.17;;;1.67;;
6987;SDS011;3534;49.960;8.018;2023-03-23T06:32:16;1.90;;;1.50;;
6987;SDS011;3534;49.960;8.018;2023-03-23T06:34:43;2.30;;;1.70;;
6987;SDS011;3534;49.960;8.018;2023-03-23T06:37:11;4.00;;;1.37;;
6987;SDS011;3534;49.960;8.018;2023-03-23T06:39:38;1.63;;;1.53;;
6987;SDS011;3534;49.960;8.018;2023-03-23T06:42:08;2.03;;;1.83;;
6987;SDS011;3534;49.960;8.018;2023-03-23T06:44:37;3.00;;;2.00;;
6987;SDS011;3534;49.960;8.018;2023-03-23T06:47:04;2.00;;;1.80;;
6987;SDS011;3534;49.960;8.018;2023-03-23T06:49:32;6.63;;;2.00;;
6987;SDS011;3534;49.960;8.018;2023-03-23T06:51:59;2.43;;;1.70;;
6987;SDS011;3534;49.960;8.018;2023-03-23T06:54:26;3.30;;;2.27;;
6987;SDS011;3534;49.960;8.018;2023-03-23T06:56:53;3.00;;;2.13;;
6987;SDS011;3534;49.960;8.018;2023-03-23T06:59:20;3.67;;;2.10;;
6987;SDS011;3534;49.960;8.018;2023-03-23T07:01:48;3.13;;;2.10;;
6987;SDS011;3534;49.960;8.018;2023-03-23T07:04:15;8.87;;;4.53;;
6987;SDS011;3534;49.960;8.018;2023-03-23T07:06:42;28.70;;;9.30;;
6987;SDS011;3534;49.960;8.018;2023-03-23T07:09:08;8.03;;;4.27;;
6987;SDS011;3534;49.960;8.018;2023-03-23T07:11:36;6.57;;;4.00;;
6987;SDS011;3534;49.960;8.018;2023-03-23T07:14:03;17.13;;;8.00;;
6987;SDS011;3534;49.960;8.018;2023-03-23T07:16:30;10.13;;;5.73;;
6987;SDS011;3534;49.960;8.018;2023-03-23T07:18:58;4.73;;;2.30;;
6987;SDS011;3534;49.960;8.018;2023-03-23T07:21:25;12.90;;;6.43;;
6987;SDS011;3534;49.960;8.018;2023-03-23T07:23:52;6.83;;;4.40;;
6987;SDS011;3534;49.960;8.018;2023-03-23T07:26:18;4.73;;;3.20;;
6987;SDS011;3534;49.960;8.018;2023-03-23T07:28:46;4.13;;;2.50;;
6987;SDS011;3534;49.960;8.018;2023-03-23T07:31:13;2.90;;;2.60;;
6987;SDS011;3534;49.960;8.018;2023-03-23T07:33:39;3.53;;;2.87;;
6987;SDS011;3534;49.960;8.018;2023-03-23T07:36:08;4.20;;;3.43;;
6987;SDS011;3534;49.960;8.018;2023-03-23T07:38:35;6.80;;;3.73;;
6987;SDS011;3534;49.960;8.018;2023-03-23T07:41:02;5.03;;;3.60;;
6987;SDS011;3534;49.960;8.018;2023-03-23T07:43:29;7.83;;;4.80;;
6987;SDS011;3534;49.960;8.018;2023-03-23T07:45:57;13.80;;;5.93;;
6987;SDS011;3534;49.960;8.018;2023-03-23T07:48:23;6.73;;;3.63;;
6987;SDS011;3534;49.960;8.018;2023-03-23T07:50:50;17.03;;;7.43;;
6987;SDS011;3534;49.960;8.018;2023-03-23T07:53:18;9.33;;;5.30;;
6987;SDS011;3534;49.960;8.018;2023-03-23T07:55:46;10.30;;;4.83;;
6987;SDS011;3534;49.960;8.018;2023-03-23T07:58:13;2.83;;;2.40;;
6987;SDS011;3534;49.960;8.018;2023-03-23T08:00:44;3.73;;;1.70;;
6987;SDS011;3534;49.960;8.018;2023-03-23T08:03:11;4.73;;;2.13;;
6987;SDS011;3534;49.960;8.018;2023-03-23T08:05:39;6.73;;;2.17;;
6987;SDS011;3534;49.960;8.018;2023-03-23T08:08:07;2.30;;;2.00;;
6987;SDS011;3534;49.960;8.018;2023-03-23T08:10:35;2.70;;;1.80;;
6987;SDS011;3534;49.960;8.018;2023-03-23T08:13:02;2.50;;;2.30;;
6987;SDS011;3534;49.960;8.018;2023-03-23T08:15:31;2.23;;;1.70;;
6987;SDS011;3534;49.960;8.018;2023-03-23T08:18:02;2.30;;;1.90;;
6987;SDS011;3534;49.960;8.018;2023-03-23T08:20:29;2.17;;;1.57;;
6987;SDS011;3534;49.960;8.018;2023-03-23T08:22:57;2.30;;;2.10;;
6987;SDS011;3534;49.960;8.018;2023-03-23T08:25:24;2.30;;;1.90;;
6987;SDS011;3534;49.960;8.018;2023-03-23T08:27:53;2.43;;;2.00;;
6987;SDS011;3534;49.960;8.018;2023-03-23T08:30:20;2.63;;;2.10;;
6987;SDS011;3534;49.960;8.018;2023-03-23T08:32:49;1.90;;;1.70;;
6987;SDS011;3534;49.960;8.018;2023-03-23T08:35:17;1.90;;;1.70;;
6987;SDS011;3534;49.960;8.018;2023-03-23T08:37:45;2.03;;;1.93;;
6987;SDS011;3534;49.960;8.018;2023-03-23T08:40:16;2.60;;;1.50;;
6987;SDS011;3534;49.960;8.018;2023-03-23T08:42:44;1.77;;;1.50;;
6987;SDS011;3534;49.960;8.018;2023-03-23T08:45:14;2.23;;;1.50;;
6987;SDS011;3534;49.960;8.018;2023-03-23T08:47:43;1.73;;;1.63;;
6987;SDS011;3534;49.960;8.018;2023-03-23T08:50:12;3.37;;;1.50;;
6987;SDS011;3534;49.960;8.018;2023-03-23T08:52:41;1.80;;;1.20;;
6987;SDS011;3534;49.960;8.018;2023-03-23T08:55:08;2.03;;;1.13;;
6987;SDS011;3534;49.960;8.018;2023-03-23T08:57:35;3.33;;;0.90;;
6987;SDS011;3534;49.960;8.018;2023-03-23T09:00:03;2.80;;;1.30;;
6987;SDS011;3534;49.960;8.018;2023-03-23T09:02:40;1.50;;;0.87;;
6987;SDS011;3534;49.960;8.018;2023-03-23T09:05:08;1.03;;;0.93;;
6987;SDS011;3534;49.960;8.018;2023-03-23T09:07:36;1.40;;;1.00;;
6987;SDS011;3534;49.960;8.018;2023-03-23T09:10:03;1.40;;;1.30;;
6987;SDS011;3534;49.960;8.018;2023-03-23T09:12:31;0.80;;;0.80;;
6987;SDS011;3534;49.960;8.018;2023-03-23T09:14:57;4.10;;;1.40;;
6987;SDS011;3534;49.960;8.018;2023-03-23T09:17:24;1.63;;;0.90;;
6987;SDS011;3534;49.960;8.018;2023-03-23T09:19:52;6.67;;;1.37;;
6987;SDS011;3534;49.960;8.018;2023-03-23T09:22:19;4.30;;;1.50;;
6987;SDS011;3534;49.960;8.018;2023-03-23T09:24:48;1.00;;;1.00;;
6987;SDS011;3534;49.960;8.018;2023-03-23T09:27:15;4.10;;;1.60;;
6987;SDS011;3534;49.960;8.018;2023-03-23T09:29:41;1.30;;;1.20;;
6987;SDS011;3534;49.960;8.018;2023-03-23T09:32:09;2.60;;;1.07;;
6987;SDS011;3534;49.960;8.018;2023-03-23T09:34:38;2.77;;;1.47;;
6987;SDS011;3534;49.960;8.018;2023-03-23T09:37:07;1.47;;;1.37;;
6987;SDS011;3534;49.960;8.018;2023-03-23T09:39:34;1.30;;;1.00;;
6987;SDS011;3534;49.960;8.018;2023-03-23T09:42:05;2.00;;;1.00;;
6987;SDS011;3534;49.960;8.018;2023-03-23T09:44:51;2.73;;;1.20;;
6987;SDS011;3534;49.960;8.018;2023-03-23T09:47:28;0.83;;;0.60;;
6987;SDS011;3534;49.960;8.018;2023-03-23T09:50:03;2.27;;;1.10;;
6987;SDS011;3534;49.960;8.018;2023-03-23T09:52:38;1.70;;;1.13;;
6987;SDS011;3534;49.960;8.018;2023-03-23T09:55:09;1.13;;;1.00;;
6987;SDS011;3534;49.960;8.018;2023-03-23T09:57:40;1.50;;;1.10;;
6987;SDS011;3534;49.960;8.018;2023-03-23T10:00:14;1.57;;;1.20;;
6987;SDS011;3534;49.960;8.018;2023-03-23T10:02:46;1.50;;;1.10;;
6987;SDS011;3534;49.960;8.018;2023-03-23T10:05:27;1.10;;;1.00;;
6987;SDS011;3534;49.960;8.018;2023-03-23T10:07:58;3.10;;;1.17;;
6987;SDS011;3534;49.960;8.018;2023-03-23T10:10:29;1.10;;;0.97;;
6987;SDS011;3534;49.960;8.018;2023-03-23T10:13:04;1.10;;;0.83;;
6987;SDS011;3534;49.960;8.018;2023-03-23T10:15:36;2.13;;;0.83;;
6987;SDS011;3534;49.960;8.018;2023-03-23T10:18:15;1.60;;;1.00;;
6987;SDS011;3534;49.960;8.018;2023-03-23T10:20:47;3.90;;;1.97;;
6987;SDS011;3534;49.960;8.018;2023-03-23T10:23:38;1.17;;;0.67;;
6987;SDS011;3534;49.960;8.018;2023-03-23T10:26:27;1.07;;;0.77;;
6987;SDS011;3534;49.960;8.018;2023-03-23T10:28:59;1.20;;;1.10;;
6987;SDS011;3534;49.960;8.018;2023-03-23T10:31:35;1.43;;;1.00;;
6987;SDS011;3534;49.960;8.018;2023-03-23T10:34:08;1.50;;;1.20;;
6987;SDS011;3534;49.960;8.018;2023-03-23T10:36:40;1.83;;;1.00;;
6987;SDS011;3534;49.960;8.018;2023-03-23T10:39:19;1.23;;;0.70;;
6987;SDS011;3534;49.960;8.018;2023-03-23T10:41:48;1.43;;;0.80;;
6987;SDS011;3534;49.960;8.018;2023-03-23T10:44:16;1.37;;;1.13;;
6987;SDS011;3534;49.960;8.018;2023-03-23T10:46:45;1.20;;;1.10;;
6987;SDS011;3534;49.960;8.018;2023-03-23T10:49:20;1.00;;;0.90;;
6987;SDS011;3534;49.960;8.018;2023-03-23T10:51:51;1.17;;;1.07;;
6987;SDS011;3534;49.960;8.018;2023-03-23T10:54:27;2.60;;;1.47;;
6987;SDS011;3534;49.960;8.018;2023-03-23T10:57:00;1.37;;;0.87;;
6987;SDS011;3534;49.960;8.018;2023-03-23T10:59:27;8.00;;;2.00;;
6987;SDS011;3534;49.960;8.018;2023-03-23T11:01:55;2.57;;;1.60;;
6987;SDS011;3534;49.960;8.018;2023-03-23T11:04:24;12.47;;;4.97;;
6987;SDS011;3534;49.960;8.018;2023-03-23T11:06:52;0.93;;;0.87;;
6987;SDS011;3534;49.960;8.018;2023-03-23T11:09:34;13.90;;;4.30;;
6987;SDS011;3534;49.960;8.018;2023-03-23T11:12:02;6.30;;;2.13;;
6987;SDS011;3534;49.960;8.018;2023-03-23T11:14:29;6.10;;;2.57;;
6987;SDS011;3534;49.960;8.018;2023-03-23T11:16:58;1.23;;;1.00;;
6987;SDS011;3534;49.960;8.018;2023-03-23T11:19:27;3.07;;;1.50;;
6987;SDS011;3534;49.960;8.018;2023-03-23T11:21:57;3.03;;;1.80;;
6987;SDS011;3534;49.960;8.018;2023-03-23T11:24:26;3.10;;;0.90;;
6987;SDS011;3534;49.960;8.018;2023-03-23T11:26:55;1.70;;;1.03;;
6987;SDS011;3534;49.960;8.018;2023-03-23T11:29:24;1.80;;;0.70;;
6987;SDS011;3534;49.960;8.018;2023-03-23T11:31:52;1.00;;;0.70;;
6987;SDS011;3534;49.960;8.018;2023-03-23T11:34:31;0.80;;;0.70;;
6987;SDS011;3534;49.960;8.018;2023-03-23T11:37:00;1.07;;;0.50;;
6987;SDS011;3534;49.960;8.018;2023-03-23T11:39:30;1.63;;;0.83;;
6987;SDS011;3534;49.960;8.018;2023-03-23T11:42:11;1.23;;;0.67;;
6987;SDS011;3534;49.960;8.018;2023-03-23T11:44:40;0.70;;;0.70;;
6987;SDS011;3534;49.960;8.018;2023-03-23T11:47:11;0.80;;;0.80;;
6987;SDS011;3534;49.960;8.018;2023-03-23T11:49:45;1.20;;;0.80;;
6987;SDS011;3534;49.960;8.018;2023-03-23T11:52:19;1.93;;;1.30;;
6987;SDS011;3534;49.960;8.018;2023-03-23T11:54:52;1.50;;;1.40;;
6987;SDS011;3534;49.960;8.018;2023-03-23T11:57:26;0.83;;;0.83;;
6987;SDS011;3534;49.960;8.018;2023-03-23T11:59:55;0.90;;;0.70;;
6987;SDS011;3534;49.960;8.018;2023-03-23T12:02:33;1.10;;;0.90;;
6987;SDS011;3534;49.960;8.018;2023-03-23T12:08:06;1.63;;;0.90;;
6987;SDS011;3534;49.960;8.018;2023-03-23T12:10:45;1.63;;;1.50;;
6987;SDS011;3534;49.960;8.018;2023-03-23T12:13:19;1.53;;;1.20;;
6987;SDS011;3534;49.960;8.018;2023-03-23T12:15:56;4.30;;;1.00;;
6987;SDS011;3534;49.960;8.018;2023-03-23T12:18:33;4.00;;;1.50;;
6987;SDS011;3534;49.960;8.018;2023-03-23T12:21:09;1.63;;;0.70;;
6987;SDS011;3534;49.960;8.018;2023-03-23T12:23:45;1.10;;;1.00;;
6987;SDS011;3534;49.960;8.018;2023-03-23T12:26:20;1.20;;;1.10;;
6987;SDS011;3534;49.960;8.018;2023-03-23T12:28:53;1.57;;;1.20;;
6987;SDS011;3534;49.960;8.018;2023-03-23T12:31:32;1.37;;;1.27;;
6987;SDS011;3534;49.960;8.018;2023-03-23T12:34:10;1.20;;;1.10;;
6987;SDS011;3534;49.960;8.018;2023-03-23T12:36:50;2.20;;;1.20;;
6987;SDS011;3534;49.960;8.018;2023-03-23T12:39:32;1.43;;;1.03;;
6987;SDS011;3534;49.960;8.018;2023-03-23T12:42:11;2.23;;;1.50;;
6987;SDS011;3534;49.960;8.018;2023-03-23T12:44:45;1.43;;;1.00;;
6987;SDS011;3534;49.960;8.018;2023-03-23T12:47:17;1.13;;;0.97;;
6987;SDS011;3534;49.960;8.018;2023-03-23T12:49:59;1.03;;;0.90;;
6987;SDS011;3534;49.960;8.018;2023-03-23T12:52:30;2.10;;;1.00;;
6987;SDS011;3534;49.960;8.018;2023-03-23T12:55:05;2.07;;;1.07;;
6987;SDS011;3534;49.960;8.018;2023-03-23T12:57:40;1.60;;;0.80;;
6987;SDS011;3534;49.960;8.018;2023-03-23T13:00:14;1.00;;;0.70;;
6987;SDS011;3534;49.960;8.018;2023-03-23T13:02:46;2.50;;;1.10;;
6987;SDS011;3534;49.960;8.018;2023-03-23T13:05:26;2.10;;;1.20;;
6987;SDS011;3534;49.960;8.018;2023-03-23T13:07:59;2.43;;;1.30;;
6987;SDS011;3534;49.960;8.018;2023-03-23T13:10:30;1.87;;;1.20;;
6987;SDS011;3534;49.960;8.018;2023-03-23T13:13:01;2.93;;;1.20;;
6987;SDS011;3534;49.960;8.018;2023-03-23T13:15:31;1.07;;;1.07;;
6987;SDS011;3534;49.960;8.018;2023-03-23T13:18:04;1.40;;;1.00;;
6987;SDS011;3534;49.960;8.018;2023-03-23T13:20:40;0.93;;;0.90;;
6987;SDS011;3534;49.960;8.018;2023-03-23T13:23:19;1.37;;;1.10;;
6987;SDS011;3534;49.960;8.018;2023-03-23T13:25:49;1.20;;;0.90;;
6987;SDS011;3534;49.960;8.018;2023-03-23T13:28:18;4.20;;;1.20;;
6987;SDS011;3534;49.960;8.018;2023-03-23T13:30:58;1.50;;;0.90;;
6987;SDS011;3534;49.960;8.018;2023-03-23T13:33:32;2.30;;;1.10;;
6987;SDS011;3534;49.960;8.018;2023-03-23T13:36:04;0.73;;;0.73;;
6987;SDS011;3534;49.960;8.018;2023-03-23T13:38:35;0.83;;;0.80;;
6987;SDS011;3534;49.960;8.018;2023-03-23T13:41:06;1.83;;;1.70;;
6987;SDS011;3534;49.960;8.018;2023-03-23T13:43:35;2.50;;;1.43;;
6987;SDS011;3534;49.960;8.018;2023-03-23T13:46:09;1.77;;;1.30;;
6987;SDS011;3534;49.960;8.018;2023-03-23T13:48:51;1.23;;;0.80;;
6987;SDS011;3534;49.960;8.018;2023-03-23T13:51:33;3.17;;;1.50;;
6987;SDS011;3534;49.960;8.018;2023-03-23T13:54:07;3.33;;;1.30;;
6987;SDS011;3534;49.960;8.018;2023-03-23T13:56:41;6.73;;;1.10;;
6987;SDS011;3534;49.960;8.018;2023-03-23T13:59:14;5.40;;;1.50;;
6987;SDS011;3534;49.960;8.018;2023-03-23T14:01:43;1.00;;;0.80;;
6987;SDS011;3534;49.960;8.018;2023-03-23T14:04:11;4.13;;;1.50;;
6987;SDS011;3534;49.960;8.018;2023-03-23T14:06:40;1.00;;;0.90;;
6987;SDS011;3534;49.960;8.018;2023-03-23T14:09:11;4.53;;;1.10;;
6987;SDS011;3534;49.960;8.018;2023-03-23T14:11:45;2.63;;;1.03;;
6987;SDS011;3534;49.960;8.018;2023-03-23T14:14:18;1.90;;;1.20;;
6987;SDS011;3534;49.960;8.018;2023-03-23T14:16:51;1.13;;;1.03;;
6987;SDS011;3534;49.960;8.018;2023-03-23T14:19:18;5.70;;;1.40;;
6987;SDS011;3534;49.960;8.018;2023-03-23T14:21:49;1.63;;;1.50;;
6987;SDS011;3534;49.960;8.018;2023-03-23T14:24:19;1.20;;;1.00;;
6987;SDS011;3534;49.960;8.018;2023-03-23T14:26:49;4.40;;;1.43;;
6987;SDS011;3534;49.960;8.018;2023-03-23T14:29:18;2.43;;;1.00;;
6987;SDS011;3534;49.960;8.018;2023-03-23T14:31:48;1.63;;;1.03;;
6987;SDS011;3534;49.960;8.018;2023-03-23T14:34:19;1.97;;;1.37;;
6987;SDS011;3534;49.960;8.018;2023-03-23T14:36:47;2.03;;;1.70;;
6987;SDS011;3534;49.960;8.018;2023-03-23T14:39:17;1.53;;;1.27;;
6987;SDS011;3534;49.960;8.018;2023-03-23T14:41:47;2.93;;;1.73;;
6987;SDS011;3534;49.960;8.018;2023-03-23T14:44:16;1.93;;;1.27;;
6987;SDS011;3534;49.960;8.018;2023-03-23T14:46:46;1.23;;;1.13;;
6987;SDS011;3534;49.960;8.018;2023-03-23T14:49:16;1.20;;;1.10;;
6987;SDS011;3534;49.960;8.018;2023-03-23T14:51:46;3.00;;;1.30;;
6987;SDS011;3534;49.960;8.018;2023-03-23T14:54:14;1.13;;;1.03;;
6987;SDS011;3534;49.960;8.018;2023-03-23T14:56:41;3.17;;;1.90;;
6987;SDS011;3534;49.960;8.018;2023-03-23T14:59:09;2.43;;;1.20;;
6987;SDS011;3534;49.960;8.018;2023-03-23T15:01:37;1.27;;;1.17;;
6987;SDS011;3534;49.960;8.018;2023-03-23T15:04:06;2.00;;;1.23;;
6987;SDS011;3534;49.960;8.018;2023-03-23T15:06:38;3.00;;;1.60;;
6987;SDS011;3534;49.960;8.018;2023-03-23T15:09:09;1.93;;;1.30;;
6987;SDS011;3534;49.960;8.018;2023-03-23T15:11:39;2.60;;;1.50;;
6987;SDS011;3534;49.960;8.018;2023-03-23T15:14:13;2.20;;;1.70;;
6987;SDS011;3534;49.960;8.018;2023-03-23T15:16:45;3.10;;;2.10;;
6987;SDS011;3534;49.960;8.018;2023-03-23T15:19:16;6.00;;;1.07;;
6987;SDS011;3534;49.960;8.018;2023-03-23T15:21:50;2.07;;;1.13;;
6987;SDS011;3534;49.960;8.018;2023-03-23T15:24:24;4.40;;;1.30;;
6987;SDS011;3534;49.960;8.018;2023-03-23T15:26:53;2.90;;;1.13;;
6987;SDS011;3534;49.960;8.018;2023-03-23T15:29:29;1.23;;;1.13;;
6987;SDS011;3534;49.960;8.018;2023-03-23T15:31:56;1.57;;;1.20;;
6987;SDS011;3534;49.960;8.018;2023-03-23T15:34:29;5.37;;;1.17;;
6987;SDS011;3534;49.960;8.018;2023-03-23T15:37:00;2.50;;;1.00;;
6987;SDS011;3534;49.960;8.018;2023-03-23T15:39:30;1.50;;;1.40;;